sensor_id;sensor_type;location;lat;lon;timestamp;temperature;humidity
20839;DHT22;10580;51.092;6.828;2023-05-10T00:01:57;13.40;1.00
20839;DHT22;10580;51.092;6.828;2023-05-10T00:04:23;13.40;1.00
20839;DHT22;10580;51.092;6.828;2023-05-10T00:06:53;13.40;1.00
20839;DHT22;10580;51.092;6.828;2023-05-10T00:09:18;13.40;1.00
20839;DHT22;10580;51.092;6.828;2023-05-10T00:11:44;13.40;1.00
20839;DHT22;10580;51.092;6.828;2023-05-10T00:14:09;13.40;1.00
20839;DHT22;10580;51.092;6.828;2023-05-10T00:16:35;13.30;1.00
20839;DHT22;10580;51.092;6.828;2023-05-10T00:19:00;13.40;1.00
20839;DHT22;10580;51.092;6.828;2023-05-10T00:21:26;13.40;1.00
20839;DHT22;10580;51.092;6.828;2023-05-10T00:23:53;13.40;1.00
20839;DHT22;10580;51.092;6.828;2023-05-10T00:26:19;13.30;1.00
20839;DHT22;10580;51.092;6.828;2023-05-10T00:28:45;13.40;1.00
20839;DHT22;10580;51.092;6.828;2023-05-10T00:31:10;13.40;1.00
20839;DHT22;10580;51.092;6.828;2023-05-10T00:33:36;13.40;1.00
20839;DHT22;10580;51.092;6.828;2023-05-10T00:36:01;13.50;1.00
20839;DHT22;10580;51.092;6.828;2023-05-10T00:38:27;13.50;1.00
20839;DHT22;10580;51.092;6.828;2023-05-10T00:40:52;13.50;1.00
20839;DHT22;10580;51.092;6.828;2023-05-10T00:43:18;13.40;1.00
20839;DHT22;10580;51.092;6.828;2023-05-10T00:45:44;13.40;1.00
20839;DHT22;10580;51.092;6.828;2023-05-10T00:48:10;13.40;1.00
20839;DHT22;10580;51.092;6.828;2023-05-10T00:50:35;13.50;1.00
20839;DHT22;10580;51.092;6.828;2023-05-10T00:53:02;13.50;1.00
20839;DHT22;10580;51.092;6.828;2023-05-10T00:55:28;13.40;1.00
20839;DHT22;10580;51.092;6.828;2023-05-10T00:57:54;13.40;1.00
20839;DHT22;10580;51.092;6.828;2023-05-10T01:00:19;13.40;1.00
20839;DHT22;10580;51.092;6.828;2023-05-10T01:02:45;13.40;1.00
20839;DHT22;10580;51.092;6.828;2023-05-10T01:05:12;13.40;1.00
20839;DHT22;10580;51.092;6.828;2023-05-10T01:07:38;13.40;1.00
20839;DHT22;10580;51.092;6.828;2023-05-10T01:10:05;13.40;1.00
20839;DHT22;10580;51.092;6.828;2023-05-10T01:12:31;13.30;1.00
20839;DHT22;10580;51.092;6.828;2023-05-10T01:14:57;13.20;1.00
20839;DHT22;10580;51.092;6.828;2023-05-10T01:17:23;13.20;1.00
20839;DHT22;10580;51.092;6.828;2023-05-10T01:19:49;13.20;1.00
20839;DHT22;10580;51.092;6.828;2023-05-10T01:39:01;13.40;1.00
20839;DHT22;10580;51.092;6.828;2023-05-10T01:41:49;13.30;1.00
20839;DHT22;10580;51.092;6.828;2023-05-10T01:44:37;13.30;1.00
20839;DHT22;10580;51.092;6.828;2023-05-10T01:47:11;13.30;1.00
20839;DHT22;10580;51.092;6.828;2023-05-10T01:49:43;13.30;1.00
20839;DHT22;10580;51.092;6.828;2023-05-10T01:52:12;13.30;1.00
20839;DHT22;10580;51.092;6.828;2023-05-10T01:54:44;13.20;1.00
20839;DHT22;10580;51.092;6.828;2023-05-10T01:57:15;13.20;1.00
20839;DHT22;10580;51.092;6.828;2023-05-10T01:59:45;13.10;99.90
20839;DHT22;10580;51.092;6.828;2023-05-10T02:02:15;13.10;99.90
20839;DHT22;10580;51.092;6.828;2023-05-10T02:04:42;13.10;99.90
20839;DHT22;10580;51.092;6.828;2023-05-10T02:07:08;13.10;1.00
20839;DHT22;10580;51.092;6.828;2023-05-10T02:09:34;13.20;99.90
20839;DHT22;10580;51.092;6.828;2023-05-10T02:12:02;13.20;1.00
20839;DHT22;10580;51.092;6.828;2023-05-10T02:14:30;13.10;99.90
20839;DHT22;10580;51.092;6.828;2023-05-10T02:16:58;13.20;1.00
20839;DHT22;10580;51.092;6.828;2023-05-10T02:19:26;13.20;1.00
20839;DHT22;10580;51.092;6.828;2023-05-10T02:21:54;13.20;1.00
20839;DHT22;10580;51.092;6.828;2023-05-10T02:24:21;13.10;1.00
20839;DHT22;10580;51.092;6.828;2023-05-10T02:26:49;13.10;1.00
20839;DHT22;10580;51.092;6.828;2023-05-10T02:29:16;13.10;1.00
20839;DHT22;10580;51.092;6.828;2023-05-10T02:31:43;13.10;1.00
20839;DHT22;10580;51.092;6.828;2023-05-10T02:34:10;13.10;1.00
20839;DHT22;10580;51.092;6.828;2023-05-10T02:36:38;13.10;1.00
20839;DHT22;10580;51.092;6.828;2023-05-10T02:39:04;13.10;1.00
20839;DHT22;10580;51.092;6.828;2023-05-10T02:41:35;13.20;1.00
20839;DHT22;10580;51.092;6.828;2023-05-10T02:44:02;13.20;1.00
20839;DHT22;10580;51.092;6.828;2023-05-10T02:46:29;13.10;1.00
20839;DHT22;10580;51.092;6.828;2023-05-10T02:48:55;13.20;1.00
20839;DHT22;10580;51.092;6.828;2023-05-10T02:51:25;13.20;99.90
20839;DHT22;10580;51.092;6.828;2023-05-10T02:53:53;13.20;99.90
20839;DHT22;10580;51.092;6.828;2023-05-10T02:56:24;13.20;99.90
20839;DHT22;10580;51.092;6.828;2023-05-10T02:58:51;13.20;99.90
20839;DHT22;10580;51.092;6.828;2023-05-10T03:01:17;13.20;99.90
20839;DHT22;10580;51.092;6.828;2023-05-10T03:03:42;13.20;99.90
20839;DHT22;10580;51.092;6.828;2023-05-10T03:06:08;13.30;99.90
20839;DHT22;10580;51.092;6.828;2023-05-10T03:08:34;13.30;99.90
20839;DHT22;10580;51.092;6.828;2023-05-10T03:11:22;13.30;99.90
20839;DHT22;10580;51.092;6.828;2023-05-10T03:14:34;13.20;99.90
20839;DHT22;10580;51.092;6.828;2023-05-10T03:17:22;13.20;1.00
20839;DHT22;10580;51.092;6.828;2023-05-10T03:19:55;13.30;1.00
20839;DHT22;10580;51.092;6.828;2023-05-10T03:22:45;13.50;1.00
20839;DHT22;10580;51.092;6.828;2023-05-10T03:25:12;13.30;1.00
20839;DHT22;10580;51.092;6.828;2023-05-10T03:27:42;13.30;1.00
20839;DHT22;10580;51.092;6.828;2023-05-10T03:30:10;13.30;1.00
20839;DHT22;10580;51.092;6.828;2023-05-10T03:32:37;13.20;1.00
20839;DHT22;10580;51.092;6.828;2023-05-10T03:35:10;13.20;1.00
20839;DHT22;10580;51.092;6.828;2023-05-10T03:37:36;13.20;1.00
20839;DHT22;10580;51.092;6.828;2023-05-10T03:40:02;13.20;1.00
20839;DHT22;10580;51.092;6.828;2023-05-10T03:42:28;13.30;1.00
20839;DHT22;10580;51.092;6.828;2023-05-10T03:44:53;13.30;1.00
20839;DHT22;10580;51.092;6.828;2023-05-10T03:47:19;13.20;99.90
20839;DHT22;10580;51.092;6.828;2023-05-10T03:49:45;13.30;99.90
20839;DHT22;10580;51.092;6.828;2023-05-10T03:52:10;13.30;99.90
20839;DHT22;10580;51.092;6.828;2023-05-10T03:54:36;13.30;99.90
20839;DHT22;10580;51.092;6.828;2023-05-10T03:57:01;13.30;99.90
20839;DHT22;10580;51.092;6.828;2023-05-10T03:59:28;13.30;99.90
20839;DHT22;10580;51.092;6.828;2023-05-10T04:01:53;13.30;99.90
20839;DHT22;10580;51.092;6.828;2023-05-10T04:04:19;13.20;99.90
20839;DHT22;10580;51.092;6.828;2023-05-10T04:06:46;13.20;1.00
20839;DHT22;10580;51.092;6.828;2023-05-10T04:09:12;13.20;1.00
20839;DHT22;10580;51.092;6.828;2023-05-10T04:11:37;13.20;1.00
20839;DHT22;10580;51.092;6.828;2023-05-10T04:14:03;13.30;1.00
20839;DHT22;10580;51.092;6.828;2023-05-10T04:16:28;13.30;1.00
20839;DHT22;10580;51.092;6.828;2023-05-10T04:18:54;13.30;1.00
20839;DHT22;10580;51.092;6.828;2023-05-10T04:21:19;13.30;1.00
20839;DHT22;10580;51.092;6.828;2023-05-10T04:23:45;13.30;1.00
20839;DHT22;10580;51.092;6.828;2023-05-10T04:26:11;13.40;1.00
20839;DHT22;10580;51.092;6.828;2023-05-10T04:28:36;13.20;1.00
20839;DHT22;10580;51.092;6.828;2023-05-10T04:31:03;13.20;99.90
20839;DHT22;10580;51.092;6.828;2023-05-10T04:33:29;13.30;99.90
20839;DHT22;10580;51.092;6.828;2023-05-10T04:35:55;13.30;1.00
20839;DHT22;10580;51.092;6.828;2023-05-10T04:38:20;13.30;1.00
20839;DHT22;10580;51.092;6.828;2023-05-10T04:40:46;13.50;1.00
20839;DHT22;10580;51.092;6.828;2023-05-10T04:43:11;13.30;99.90
20839;DHT22;10580;51.092;6.828;2023-05-10T04:45:37;13.30;99.90
20839;DHT22;10580;51.092;6.828;2023-05-10T04:48:02;13.40;1.00
20839;DHT22;10580;51.092;6.828;2023-05-10T04:50:28;13.30;99.90
20839;DHT22;10580;51.092;6.828;2023-05-10T04:52:53;13.40;99.90
20839;DHT22;10580;51.092;6.828;2023-05-10T04:55:19;13.40;1.00
20839;DHT22;10580;51.092;6.828;2023-05-10T04:57:44;13.40;99.90
20839;DHT22;10580;51.092;6.828;2023-05-10T05:00:10;13.50;99.90
20839;DHT22;10580;51.092;6.828;2023-05-10T05:02:36;13.50;99.90
20839;DHT22;10580;51.092;6.828;2023-05-10T05:05:02;13.50;99.90
20839;DHT22;10580;51.092;6.828;2023-05-10T05:07:27;13.50;99.90
20839;DHT22;10580;51.092;6.828;2023-05-10T05:09:53;13.40;99.90
20839;DHT22;10580;51.092;6.828;2023-05-10T05:12:18;13.40;99.90
20839;DHT22;10580;51.092;6.828;2023-05-10T05:14:44;13.50;92.20
20839;DHT22;10580;51.092;6.828;2023-05-10T05:17:10;13.50;88.60
20839;DHT22;10580;51.092;6.828;2023-05-10T05:19:35;13.50;99.90
20839;DHT22;10580;51.092;6.828;2023-05-10T05:22:01;13.60;1.00
20839;DHT22;10580;51.092;6.828;2023-05-10T05:24:27;13.60;1.00
20839;DHT22;10580;51.092;6.828;2023-05-10T05:26:52;13.70;1.00
20839;DHT22;10580;51.092;6.828;2023-05-10T05:29:18;13.70;99.90
20839;DHT22;10580;51.092;6.828;2023-05-10T05:31:43;13.70;95.00
20839;DHT22;10580;51.092;6.828;2023-05-10T05:34:09;13.70;1.00
20839;DHT22;10580;51.092;6.828;2023-05-10T05:36:36;13.60;1.00
20839;DHT22;10580;51.092;6.828;2023-05-10T05:39:03;13.60;1.00
20839;DHT22;10580;51.092;6.828;2023-05-10T05:41:29;13.50;1.00
20839;DHT22;10580;51.092;6.828;2023-05-10T05:43:54;13.50;1.00
20839;DHT22;10580;51.092;6.828;2023-05-10T05:46:20;13.60;1.00
20839;DHT22;10580;51.092;6.828;2023-05-10T05:48:45;13.60;99.90
20839;DHT22;10580;51.092;6.828;2023-05-10T05:51:11;13.70;1.00
20839;DHT22;10580;51.092;6.828;2023-05-10T05:53:36;13.60;99.90
20839;DHT22;10580;51.092;6.828;2023-05-10T05:56:02;13.70;1.00
20839;DHT22;10580;51.092;6.828;2023-05-10T05:58:28;13.60;1.00
20839;DHT22;10580;51.092;6.828;2023-05-10T06:00:54;13.20;15.00
20839;DHT22;10580;51.092;6.828;2023-05-10T06:03:20;13.70;1.00
20839;DHT22;10580;51.092;6.828;2023-05-10T06:05:46;13.70;54.40
20839;DHT22;10580;51.092;6.828;2023-05-10T06:08:11;13.80;99.90
20839;DHT22;10580;51.092;6.828;2023-05-10T06:10:37;13.80;99.90
20839;DHT22;10580;51.092;6.828;2023-05-10T06:13:03;13.50;99.90
20839;DHT22;10580;51.092;6.828;2023-05-10T06:15:28;13.80;99.00
20839;DHT22;10580;51.092;6.828;2023-05-10T06:17:54;13.70;1.00
20839;DHT22;10580;51.092;6.828;2023-05-10T06:20:19;13.70;1.00
20839;DHT22;10580;51.092;6.828;2023-05-10T06:22:45;13.70;1.00
20839;DHT22;10580;51.092;6.828;2023-05-10T06:25:11;13.70;1.00
20839;DHT22;10580;51.092;6.828;2023-05-10T06:27:36;13.60;99.90
20839;DHT22;10580;51.092;6.828;2023-05-10T06:30:02;13.60;38.80
20839;DHT22;10580;51.092;6.828;2023-05-10T06:32:28;13.60;70.40
20839;DHT22;10580;51.092;6.828;2023-05-10T06:34:54;13.50;1.00
20839;DHT22;10580;51.092;6.828;2023-05-10T06:37:19;13.50;1.00
20839;DHT22;10580;51.092;6.828;2023-05-10T06:39:45;13.50;99.90
20839;DHT22;10580;51.092;6.828;2023-05-10T06:42:11;13.40;99.90
20839;DHT22;10580;51.092;6.828;2023-05-10T06:44:36;13.30;99.90
20839;DHT22;10580;51.092;6.828;2023-05-10T06:47:02;13.30;99.90
20839;DHT22;10580;51.092;6.828;2023-05-10T06:49:27;13.20;1.00
20839;DHT22;10580;51.092;6.828;2023-05-10T06:51:54;13.30;1.00
20839;DHT22;10580;51.092;6.828;2023-05-10T06:54:20;13.30;1.00
20839;DHT22;10580;51.092;6.828;2023-05-10T06:56:46;13.50;1.00
20839;DHT22;10580;51.092;6.828;2023-05-10T06:59:11;13.50;1.00
20839;DHT22;10580;51.092;6.828;2023-05-10T07:01:39;13.50;1.00
20839;DHT22;10580;51.092;6.828;2023-05-10T07:04:04;13.50;53.20
20839;DHT22;10580;51.092;6.828;2023-05-10T07:06:30;13.70;1.00
20839;DHT22;10580;51.092;6.828;2023-05-10T07:08:55;13.80;1.00
20839;DHT22;10580;51.092;6.828;2023-05-10T07:11:21;13.80;1.00
20839;DHT22;10580;51.092;6.828;2023-05-10T07:13:47;13.90;1.00
20839;DHT22;10580;51.092;6.828;2023-05-10T07:16:12;13.90;1.00
20839;DHT22;10580;51.092;6.828;2023-05-10T07:18:38;13.50;99.90
20839;DHT22;10580;51.092;6.828;2023-05-10T07:21:03;13.90;99.90
20839;DHT22;10580;51.092;6.828;2023-05-10T07:23:29;14.60;99.90
20839;DHT22;10580;51.092;6.828;2023-05-10T07:25:55;13.90;1.00
20839;DHT22;10580;51.092;6.828;2023-05-10T07:28:23;13.90;1.30
20839;DHT22;10580;51.092;6.828;2023-05-10T07:30:50;13.90;99.50
20839;DHT22;10580;51.092;6.828;2023-05-10T07:33:16;13.80;99.90
20839;DHT22;10580;51.092;6.828;2023-05-10T07:35:42;13.80;4.30
20839;DHT22;10580;51.092;6.828;2023-05-10T07:38:08;14.00;1.00
20839;DHT22;10580;51.092;6.828;2023-05-10T07:40:33;14.10;1.00
20839;DHT22;10580;51.092;6.828;2023-05-10T07:42:59;14.30;1.00
20839;DHT22;10580;51.092;6.828;2023-05-10T07:45:27;14.20;1.00
20839;DHT22;10580;51.092;6.828;2023-05-10T07:47:52;14.20;1.00
20839;DHT22;10580;51.092;6.828;2023-05-10T07:50:18;14.30;1.00
20839;DHT22;10580;51.092;6.828;2023-05-10T07:52:43;14.30;99.90
20839;DHT22;10580;51.092;6.828;2023-05-10T07:55:09;14.40;1.00
20839;DHT22;10580;51.092;6.828;2023-05-10T07:57:35;14.40;1.00
20839;DHT22;10580;51.092;6.828;2023-05-10T08:00:01;14.30;99.90
20839;DHT22;10580;51.092;6.828;2023-05-10T08:02:26;14.30;99.90
20839;DHT22;10580;51.092;6.828;2023-05-10T08:04:52;14.30;99.90
20839;DHT22;10580;51.092;6.828;2023-05-10T08:07:18;14.30;99.90
20839;DHT22;10580;51.092;6.828;2023-05-10T08:09:43;14.30;99.90
20839;DHT22;10580;51.092;6.828;2023-05-10T08:12:09;14.30;99.90
20839;DHT22;10580;51.092;6.828;2023-05-10T08:14:35;14.20;99.90
20839;DHT22;10580;51.092;6.828;2023-05-10T08:17:02;14.30;99.90
20839;DHT22;10580;51.092;6.828;2023-05-10T08:19:28;14.40;99.90
20839;DHT22;10580;51.092;6.828;2023-05-10T08:21:53;14.40;99.90
20839;DHT22;10580;51.092;6.828;2023-05-10T08:24:21;14.50;99.90
20839;DHT22;10580;51.092;6.828;2023-05-10T08:26:46;14.60;99.90
20839;DHT22;10580;51.092;6.828;2023-05-10T08:29:13;14.60;99.90
20839;DHT22;10580;51.092;6.828;2023-05-10T08:31:38;14.20;99.90
20839;DHT22;10580;51.092;6.828;2023-05-10T08:34:04;14.90;99.90
20839;DHT22;10580;51.092;6.828;2023-05-10T08:36:30;14.90;45.20
20839;DHT22;10580;51.092;6.828;2023-05-10T08:38:57;15.00;92.30
20839;DHT22;10580;51.092;6.828;2023-05-10T08:41:24;15.00;28.60
20839;DHT22;10580;51.092;6.828;2023-05-10T08:43:53;15.20;1.00
20839;DHT22;10580;51.092;6.828;2023-05-10T08:46:19;15.20;1.00
20839;DHT22;10580;51.092;6.828;2023-05-10T08:48:46;15.60;1.00
20839;DHT22;10580;51.092;6.828;2023-05-10T08:51:14;15.80;1.00
20839;DHT22;10580;51.092;6.828;2023-05-10T08:53:42;15.80;1.00
20839;DHT22;10580;51.092;6.828;2023-05-10T08:56:07;15.70;1.00
20839;DHT22;10580;51.092;6.828;2023-05-10T08:58:33;15.60;1.00
20839;DHT22;10580;51.092;6.828;2023-05-10T09:00:59;15.40;1.00
20839;DHT22;10580;51.092;6.828;2023-05-10T09:03:26;15.20;1.00
20839;DHT22;10580;51.092;6.828;2023-05-10T09:05:51;15.00;1.00
20839;DHT22;10580;51.092;6.828;2023-05-10T09:08:17;15.00;1.00
20839;DHT22;10580;51.092;6.828;2023-05-10T09:10:44;15.00;1.00
20839;DHT22;10580;51.092;6.828;2023-05-10T09:13:13;15.00;1.00
20839;DHT22;10580;51.092;6.828;2023-05-10T09:15:39;15.00;1.00
20839;DHT22;10580;51.092;6.828;2023-05-10T09:18:04;15.10;1.00
20839;DHT22;10580;51.092;6.828;2023-05-10T09:20:30;15.00;1.00
20839;DHT22;10580;51.092;6.828;2023-05-10T09:22:56;15.00;1.00
20839;DHT22;10580;51.092;6.828;2023-05-10T09:25:22;15.00;1.00
20839;DHT22;10580;51.092;6.828;2023-05-10T09:27:48;14.90;1.00
20839;DHT22;10580;51.092;6.828;2023-05-10T09:30:27;14.80;1.00
20839;DHT22;10580;51.092;6.828;2023-05-10T09:32:54;14.80;1.00
20839;DHT22;10580;51.092;6.828;2023-05-10T09:35:22;14.80;1.00
20839;DHT22;10580;51.092;6.828;2023-05-10T09:37:53;14.70;1.00
20839;DHT22;10580;51.092;6.828;2023-05-10T09:40:24;14.70;1.00
20839;DHT22;10580;51.092;6.828;2023-05-10T09:43:08;14.50;1.00
20839;DHT22;10580;51.092;6.828;2023-05-10T09:45:36;14.40;1.00
20839;DHT22;10580;51.092;6.828;2023-05-10T09:48:02;14.40;1.00
20839;DHT22;10580;51.092;6.828;2023-05-10T09:50:29;14.40;1.00
20839;DHT22;10580;51.092;6.828;2023-05-10T09:52:57;14.40;1.00
20839;DHT22;10580;51.092;6.828;2023-05-10T09:55:25;14.60;1.00
20839;DHT22;10580;51.092;6.828;2023-05-10T09:58:09;14.80;1.00
20839;DHT22;10580;51.092;6.828;2023-05-10T10:00:42;15.00;1.00
20839;DHT22;10580;51.092;6.828;2023-05-10T10:03:16;15.00;1.00
20839;DHT22;10580;51.092;6.828;2023-05-10T10:05:43;15.00;1.00
20839;DHT22;10580;51.092;6.828;2023-05-10T10:08:09;15.00;1.00
20839;DHT22;10580;51.092;6.828;2023-05-10T10:10:35;14.90;1.00
20839;DHT22;10580;51.092;6.828;2023-05-10T10:13:01;14.90;1.00
20839;DHT22;10580;51.092;6.828;2023-05-10T10:15:27;15.30;1.00
20839;DHT22;10580;51.092;6.828;2023-05-10T10:17:53;15.20;1.00
20839;DHT22;10580;51.092;6.828;2023-05-10T10:20:20;15.30;1.00
20839;DHT22;10580;51.092;6.828;2023-05-10T10:22:47;15.20;1.00
20839;DHT22;10580;51.092;6.828;2023-05-10T10:25:15;15.20;1.00
20839;DHT22;10580;51.092;6.828;2023-05-10T10:30:44;15.20;1.00
20839;DHT22;10580;51.092;6.828;2023-05-10T10:33:39;15.10;1.00
20839;DHT22;10580;51.092;6.828;2023-05-10T10:36:12;15.30;1.00
20839;DHT22;10580;51.092;6.828;2023-05-10T10:41:35;15.90;1.00
20839;DHT22;10580;51.092;6.828;2023-05-10T10:52:32;16.00;99.90
20839;DHT22;10580;51.092;6.828;2023-05-10T10:55:19;16.00;99.90
20839;DHT22;10580;51.092;6.828;2023-05-10T10:57:53;15.80;1.00
20839;DHT22;10580;51.092;6.828;2023-05-10T11:05:34;16.20;1.00
20839;DHT22;10580;51.092;6.828;2023-05-10T11:08:17;16.20;99.90
20839;DHT22;10580;51.092;6.828;2023-05-10T11:11:14;16.40;99.90
20839;DHT22;10580;51.092;6.828;2023-05-10T11:13:46;16.90;99.90
20839;DHT22;10580;51.092;6.828;2023-05-10T11:16:24;17.20;99.90
20839;DHT22;10580;51.092;6.828;2023-05-10T11:19:05;17.10;99.90
20839;DHT22;10580;51.092;6.828;2023-05-10T11:21:32;17.10;99.90
20839;DHT22;10580;51.092;6.828;2023-05-10T11:24:00;17.10;99.90
20839;DHT22;10580;51.092;6.828;2023-05-10T11:26:31;17.20;99.90
20839;DHT22;10580;51.092;6.828;2023-05-10T11:28:57;17.30;99.90
20839;DHT22;10580;51.092;6.828;2023-05-10T11:31:24;17.50;99.20
20839;DHT22;10580;51.092;6.828;2023-05-10T11:33:56;17.40;99.90
20839;DHT22;10580;51.092;6.828;2023-05-10T11:36:32;17.10;48.80
20839;DHT22;10580;51.092;6.828;2023-05-10T11:38:58;16.90;94.40
20839;DHT22;10580;51.092;6.828;2023-05-10T11:41:24;16.50;99.90
20839;DHT22;10580;51.092;6.828;2023-05-10T11:43:52;16.40;67.90
20839;DHT22;10580;51.092;6.828;2023-05-10T11:46:20;16.20;58.00
20839;DHT22;10580;51.092;6.828;2023-05-10T11:48:51;16.10;66.20
20839;DHT22;10580;51.092;6.828;2023-05-10T11:51:21;16.10;99.90
20839;DHT22;10580;51.092;6.828;2023-05-10T11:53:48;16.00;99.90
20839;DHT22;10580;51.092;6.828;2023-05-10T11:56:14;16.00;99.90
20839;DHT22;10580;51.092;6.828;2023-05-10T11:58:40;16.00;36.50
20839;DHT22;10580;51.092;6.828;2023-05-10T12:01:07;16.10;55.70
20839;DHT22;10580;51.092;6.828;2023-05-10T12:03:33;16.10;63.30
20839;DHT22;10580;51.092;6.828;2023-05-10T12:06:00;16.20;76.00
20839;DHT22;10580;51.092;6.828;2023-05-10T12:08:27;16.30;99.90
20839;DHT22;10580;51.092;6.828;2023-05-10T12:11:04;16.70;99.90
20839;DHT22;10580;51.092;6.828;2023-05-10T12:13:30;17.00;99.90
20839;DHT22;10580;51.092;6.828;2023-05-10T12:15:59;17.20;99.90
20839;DHT22;10580;51.092;6.828;2023-05-10T12:18:25;17.40;99.90
20839;DHT22;10580;51.092;6.828;2023-05-10T12:20:54;17.50;99.10
20839;DHT22;10580;51.092;6.828;2023-05-10T12:23:20;17.70;99.90
20839;DHT22;10580;51.092;6.828;2023-05-10T12:25:46;17.30;99.90
20839;DHT22;10580;51.092;6.828;2023-05-10T12:28:12;17.00;26.00
20839;DHT22;10580;51.092;6.828;2023-05-10T12:30:38;16.90;42.30
20839;DHT22;10580;51.092;6.828;2023-05-10T12:33:11;16.90;62.50
20839;DHT22;10580;51.092;6.828;2023-05-10T12:38:36;16.90;99.90
20839;DHT22;10580;51.092;6.828;2023-05-10T12:41:07;16.80;99.90
20839;DHT22;10580;51.092;6.828;2023-05-10T12:43:34;16.80;99.90
20839;DHT22;10580;51.092;6.828;2023-05-10T12:48:31;17.10;30.40
20839;DHT22;10580;51.092;6.828;2023-05-10T12:50:59;17.10;37.20
20839;DHT22;10580;51.092;6.828;2023-05-10T12:53:24;17.20;45.30
20839;DHT22;10580;51.092;6.828;2023-05-10T12:55:50;17.10;99.90
20839;DHT22;10580;51.092;6.828;2023-05-10T12:58:16;17.10;43.10
20839;DHT22;10580;51.092;6.828;2023-05-10T13:00:41;17.20;99.90
20839;DHT22;10580;51.092;6.828;2023-05-10T13:03:07;17.20;29.60
20839;DHT22;10580;51.092;6.828;2023-05-10T13:05:33;17.30;32.50
20839;DHT22;10580;51.092;6.828;2023-05-10T13:07:58;17.30;99.90
20839;DHT22;10580;51.092;6.828;2023-05-10T13:10:24;17.30;11.30
20839;DHT22;10580;51.092;6.828;2023-05-10T13:12:50;17.40;99.90
20839;DHT22;10580;51.092;6.828;2023-05-10T13:15:16;17.60;1.00
20839;DHT22;10580;51.092;6.828;2023-05-10T13:17:42;17.60;1.00
20839;DHT22;10580;51.092;6.828;2023-05-10T13:20:08;17.50;1.00
20839;DHT22;10580;51.092;6.828;2023-05-10T13:22:35;17.30;1.00
20839;DHT22;10580;51.092;6.828;2023-05-10T13:25:01;17.30;32.00
20839;DHT22;10580;51.092;6.828;2023-05-10T13:27:26;17.60;99.90
20839;DHT22;10580;51.092;6.828;2023-05-10T13:29:52;17.30;99.90
20839;DHT22;10580;51.092;6.828;2023-05-10T13:32:17;17.30;1.00
20839;DHT22;10580;51.092;6.828;2023-05-10T13:34:43;17.40;1.00
20839;DHT22;10580;51.092;6.828;2023-05-10T13:37:09;17.50;15.80
20839;DHT22;10580;51.092;6.828;2023-05-10T13:39:34;17.50;25.50
20839;DHT22;10580;51.092;6.828;2023-05-10T13:42:03;17.40;99.90
20839;DHT22;10580;51.092;6.828;2023-05-10T13:44:28;17.20;1.00
20839;DHT22;10580;51.092;6.828;2023-05-10T13:46:54;17.30;2.70
20839;DHT22;10580;51.092;6.828;2023-05-10T13:49:20;17.20;50.60
20839;DHT22;10580;51.092;6.828;2023-05-10T13:51:47;17.10;99.90
20839;DHT22;10580;51.092;6.828;2023-05-10T13:54:13;17.00;11.30
20839;DHT22;10580;51.092;6.828;2023-05-10T13:56:39;16.90;22.50
20839;DHT22;10580;51.092;6.828;2023-05-10T13:59:06;16.80;99.90
20839;DHT22;10580;51.092;6.828;2023-05-10T14:01:33;16.70;1.80
20839;DHT22;10580;51.092;6.828;2023-05-10T14:03:59;16.70;13.90
20839;DHT22;10580;51.092;6.828;2023-05-10T14:06:24;16.60;42.20
20839;DHT22;10580;51.092;6.828;2023-05-10T14:08:50;16.50;99.90
20839;DHT22;10580;51.092;6.828;2023-05-10T14:11:15;16.50;12.40
20839;DHT22;10580;51.092;6.828;2023-05-10T14:13:41;16.40;16.40
20839;DHT22;10580;51.092;6.828;2023-05-10T14:16:07;16.30;23.20
20839;DHT22;10580;51.092;6.828;2023-05-10T14:18:32;16.30;62.90
20839;DHT22;10580;51.092;6.828;2023-05-10T14:20:58;16.30;99.90
20839;DHT22;10580;51.092;6.828;2023-05-10T14:23:23;16.40;41.50
20839;DHT22;10580;51.092;6.828;2023-05-10T14:25:50;16.50;55.20
20839;DHT22;10580;51.092;6.828;2023-05-10T14:28:16;16.50;73.10
20839;DHT22;10580;51.092;6.828;2023-05-10T14:30:43;16.50;99.90
20839;DHT22;10580;51.092;6.828;2023-05-10T14:33:09;16.60;99.90
20839;DHT22;10580;51.092;6.828;2023-05-10T14:35:35;16.60;56.50
20839;DHT22;10580;51.092;6.828;2023-05-10T14:38:03;16.70;95.10
20839;DHT22;10580;51.092;6.828;2023-05-10T14:40:29;16.80;99.90
20839;DHT22;10580;51.092;6.828;2023-05-10T14:42:55;16.60;99.90
20839;DHT22;10580;51.092;6.828;2023-05-10T14:45:21;16.90;44.80
20839;DHT22;10580;51.092;6.828;2023-05-10T14:47:47;17.00;92.90
20839;DHT22;10580;51.092;6.828;2023-05-10T14:50:13;17.20;99.90
20839;DHT22;10580;51.092;6.828;2023-05-10T14:52:39;17.20;96.60
20839;DHT22;10580;51.092;6.828;2023-05-10T14:55:05;17.00;99.90
20839;DHT22;10580;51.092;6.828;2023-05-10T14:57:30;17.40;99.90
20839;DHT22;10580;51.092;6.828;2023-05-10T14:59:57;17.50;99.90
20839;DHT22;10580;51.092;6.828;2023-05-10T15:02:23;17.60;99.90
20839;DHT22;10580;51.092;6.828;2023-05-10T15:04:48;17.80;99.90
20839;DHT22;10580;51.092;6.828;2023-05-10T15:07:14;18.00;99.90
20839;DHT22;10580;51.092;6.828;2023-05-10T15:09:41;18.00;99.90
20839;DHT22;10580;51.092;6.828;2023-05-10T15:12:07;18.30;99.90
20839;DHT22;10580;51.092;6.828;2023-05-10T15:14:32;18.30;99.90
20839;DHT22;10580;51.092;6.828;2023-05-10T15:16:59;18.40;99.90
20839;DHT22;10580;51.092;6.828;2023-05-10T15:19:24;18.90;99.90
20839;DHT22;10580;51.092;6.828;2023-05-10T15:21:50;18.50;93.60
20839;DHT22;10580;51.092;6.828;2023-05-10T15:24:15;18.30;99.90
20839;DHT22;10580;51.092;6.828;2023-05-10T15:26:41;18.50;1.00
20839;DHT22;10580;51.092;6.828;2023-05-10T15:29:09;18.80;99.90
20839;DHT22;10580;51.092;6.828;2023-05-10T15:31:35;18.90;99.90
20839;DHT22;10580;51.092;6.828;2023-05-10T15:34:01;18.70;99.90
20839;DHT22;10580;51.092;6.828;2023-05-10T15:36:26;18.50;99.90
20839;DHT22;10580;51.092;6.828;2023-05-10T15:38:54;18.50;99.90
20839;DHT22;10580;51.092;6.828;2023-05-10T15:41:20;18.40;99.90
20839;DHT22;10580;51.092;6.828;2023-05-10T15:43:46;18.80;1.00
20839;DHT22;10580;51.092;6.828;2023-05-10T15:46:11;18.80;1.00
20839;DHT22;10580;51.092;6.828;2023-05-10T15:48:37;18.90;99.90
20839;DHT22;10580;51.092;6.828;2023-05-10T15:51:04;18.90;1.00
20839;DHT22;10580;51.092;6.828;2023-05-10T15:53:30;19.10;99.90
20839;DHT22;10580;51.092;6.828;2023-05-10T15:55:55;18.90;1.00
20839;DHT22;10580;51.092;6.828;2023-05-10T15:58:21;18.80;18.00
20839;DHT22;10580;51.092;6.828;2023-05-10T16:00:46;18.80;1.00
20839;DHT22;10580;51.092;6.828;2023-05-10T16:03:12;18.70;99.90
20839;DHT22;10580;51.092;6.828;2023-05-10T16:05:37;18.70;1.00
20839;DHT22;10580;51.092;6.828;2023-05-10T16:08:03;19.00;99.90
20839;DHT22;10580;51.092;6.828;2023-05-10T16:10:31;19.10;13.50
20839;DHT22;10580;51.092;6.828;2023-05-10T16:12:57;18.70;99.90
20839;DHT22;10580;51.092;6.828;2023-05-10T16:15:23;18.70;24.10
20839;DHT22;10580;51.092;6.828;2023-05-10T16:17:48;18.70;55.80
20839;DHT22;10580;51.092;6.828;2023-05-10T16:20:14;18.40;20.10